Ai Maru — JD2031 — position and weather

sailwx.info

Track history (hours):
 
Tides and Currents Weather Stations Pressure Air Temp Water Temp Dewpoint Dewpoint Depression Visibility Wind Speed Wind Dir Waves Ship Positions

Ai Maru

Last reported at 2018-Apr-24 06:08 UTC. Time now 2018-Apr-25 16:13 UTC.
Position N 35°04' E 140°21'.

Length 105 m; draft 6.4 m.

Type: Tanker. MMSI: 431501797.

Date/timePositionNaut miles runAvg speedWind from/ knotsBaromVisibWave heightAir tempDewpointWater temp
2018-Apr-24 06:08N 35°04' E 140°21'915.2
2018-Apr-24 05:33N 34°59' E 140°12'315.0
2018-Apr-24 05:22N 34°57' E 140°09'614.9
2018-Apr-24 04:59N 34°55' E 140°03'2513.9
2018-Apr-24 03:13N 34°43' E 139°37'1315.7
2018-Apr-24 02:22N 34°38' E 139°22'616.0
2018-Apr-24 01:58N 34°37' E 139°14'915.5
2018-Apr-24 01:22N 34°34' E 139°03'615.7
2018-Apr-24 01:00N 34°33' E 138°57'815.2
2018-Apr-24 00:27N 34°32' E 138°47'814.7
2018-Apr-23 23:55N 34°32' E 138°37'1014.6
2018-Apr-23 23:12N 34°32' E 138°24'614.0
2018-Apr-23 22:47N 34°32' E 138°17'414.0
2018-Apr-23 22:29N 34°32' E 138°12'713.9
2018-Apr-23 22:00N 34°32' E 138°04'5813.7
2018-Apr-23 17:46N 34°37' E 136°54'413.9
2018-Apr-23 17:28N 34°40' E 136°50'1013.9
2018-Apr-23 16:46N 34°49' E 136°45'414.1
2018-Apr-23 16:30N 34°52' E 136°42'611.8
2018-Apr-23 16:00N 34°57' E 136°39'1 1.3
2018-Apr-23 15:28N 34°56' E 136°38'0 0.0
2018-Apr-23 14:58N 34°56' E 136°38'0 0.0
2018-Apr-23 14:28N 34°56' E 136°38'0 0.0
2018-Apr-23 13:58N 34°56' E 136°38'0 0.0
2018-Apr-23 13:28N 34°56' E 136°38'0 0.0
2018-Apr-23 12:58N 34°56' E 136°38'0 0.0
2018-Apr-23 12:28N 34°56' E 136°38'0 0.0
2018-Apr-23 11:58N 34°56' E 136°38'0 0.0
2018-Apr-23 11:25N 34°56' E 136°38'0 0.0
2018-Apr-23 10:55N 34°56' E 136°38'0 0.0
2018-Apr-23 10:25N 34°56' E 136°38'0 0.0
2018-Apr-23 10:00N 34°56' E 136°38'0 0.0
2018-Apr-23 09:30N 34°56' E 136°38'0 0.0
2018-Apr-23 09:00N 34°56' E 136°38'1 1.8
2018-Apr-23 08:30N 34°57' E 136°39'3 6.2
2018-Apr-23 08:00N 34°54' E 136°41'0 0.0
2018-Apr-23 07:27N 34°54' E 136°41'0 0.0
2018-Apr-23 07:00N 34°54' E 136°41'0 0.0
2018-Apr-23 06:30N 34°54' E 136°41'0 0.0
2018-Apr-23 05:57N 34°54' E 136°41'0 0.0
2018-Apr-23 05:27N 34°54' E 136°41'1 2.7
2018-Apr-23 04:59N 34°55' E 136°41'4 7.3
2018-Apr-23 04:30N 34°58' E 136°39'0 0.0
2018-Apr-23 04:00N 34°58' E 136°39'0 0.0
2018-Apr-23 03:30N 34°58' E 136°39'0 0.0
2018-Apr-23 03:00N 34°58' E 136°39'0 0.0
2018-Apr-23 02:30N 34°58' E 136°39'0 0.0
2018-Apr-23 02:00N 34°58' E 136°39'0 0.0
2018-Apr-23 01:30N 34°58' E 136°39'0 0.0
2018-Apr-23 01:00N 34°58' E 136°39'0 0.0
2018-Apr-23 00:30N 34°58' E 136°39'0 0.0
2018-Apr-23 00:00N 34°58' E 136°39'0 0.0
2018-Apr-22 23:30N 34°58' E 136°39'2 3.4
2018-Apr-22 23:00N 34°57' E 136°40'3 6.5
2018-Apr-22 22:30N 34°57' E 136°44'0 0.0
2018-Apr-22 22:00N 34°57' E 136°44'0 0.0
2018-Apr-22 21:30N 34°57' E 136°44'0 0.0
2018-Apr-22 21:00N 34°57' E 136°44'0 0.0
2018-Apr-22 20:30N 34°57' E 136°44'0 0.0
2018-Apr-22 20:00N 34°57' E 136°44'0 0.0
2018-Apr-22 19:30N 34°57' E 136°44'0 0.0
2018-Apr-22 19:00N 34°57' E 136°44'0 0.0
2018-Apr-22 18:30N 34°57' E 136°44'0 0.0
2018-Apr-22 18:00N 34°57' E 136°44'0 0.0
2018-Apr-22 17:30N 34°57' E 136°44'0 0.1
2018-Apr-22 17:00N 34°57' E 136°44'0 0.0
2018-Apr-22 16:30N 34°57' E 136°44'0 0.0
2018-Apr-22 16:00N 34°57' E 136°44'0 0.0
2018-Apr-22 15:30N 34°57' E 136°44'0 0.0
2018-Apr-22 15:00N 34°57' E 136°44'0 0.0
2018-Apr-22 14:30N 34°57' E 136°44'0 0.0
2018-Apr-22 14:00N 34°57' E 136°44'0 0.1
2018-Apr-22 13:30N 34°57' E 136°44'4 8.7
2018-Apr-22 13:01N 34°52' E 136°44'714.0
2018-Apr-22 12:31N 34°46' E 136°48'714.5
2018-Apr-22 12:00N 34°40' E 136°52'714.1
2018-Apr-22 11:30N 34°35' E 136°59'713.4
2018-Apr-22 11:00N 34°30' E 137°04'714.8
2018-Apr-22 10:30N 34°23' E 137°02'2114.1
2018-Apr-22 09:02N 34°05' E 136°48'114.7
2018-Apr-22 09:00N 34°05' E 136°47'714.4
2018-Apr-22 08:29N 34°00' E 136°41'18813.6
2018-Apr-21 18:43N 32°42' E 133°16'5312.8
2018-Apr-21 14:35N 32°58' E 132°16'1312.6
2018-Apr-21 13:31N 33°09' E 132°08'112.6
2018-Apr-21 13:25N 33°10' E 132°07'512.4
2018-Apr-21 13:00N 33°15' E 132°04'612.3
2018-Apr-21 12:31N 33°20' E 131°59'5 9.4
2018-Apr-21 11:59N 33°24' E 132°01'612.4
2018-Apr-21 11:30N 33°28' E 132°06'613.0
2018-Apr-21 11:01N 33°33' E 132°12'713.2
2018-Apr-21 10:30N 33°37' E 132°18'714.0
2018-Apr-21 10:00N 33°42' E 132°24'715.1
2018-Apr-21 09:30N 33°47' E 132°31'815.3
2018-Apr-21 09:00N 33°54' E 132°36'815.7
2018-Apr-21 08:31N 33°59' E 132°43'8 0.9
2018-Apr-20 23:53N 34°03' E 132°51'1 2.5
2018-Apr-20 23:30N 34°03' E 132°50'1 2.2
2018-Apr-20 23:00N 34°04' E 132°51'1 0.1
2018-Apr-20 12:04N 34°04' E 132°49'315.4
2018-Apr-20 11:53N 34°02' E 132°47'615.5
2018-Apr-20 11:30N 33°57' E 132°43'1114.7
2018-Apr-20 10:46N 33°50' E 132°33'414.4
2018-Apr-20 10:30N 33°48' E 132°29'714.4
2018-Apr-20 10:00N 33°45' E 132°21'1214.3
2018-Apr-20 09:12N 33°41' E 132°08'314.0
2018-Apr-20 09:00N 33°41' E 132°05'714.3
2018-Apr-20 08:29N 33°43' E 131°56'714.9
2018-Apr-20 08:00N 33°45' E 131°48'815.5
2018-Apr-20 07:30N 33°46' E 131°39'815.6
2018-Apr-20 07:00N 33°48' E 131°29'815.5
2018-Apr-20 06:30N 33°50' E 131°20'815.5
2018-Apr-20 06:00N 33°52' E 131°11'815.2
2018-Apr-20 05:30N 33°57' E 131°04'611.7
2018-Apr-20 05:00N 33°58' E 130°57'4 8.5
2018-Apr-20 04:30N 33°55' E 130°54'4 7.8
2018-Apr-20 04:00N 33°58' E 130°53'714.1
2018-Apr-20 03:30N 34°05' E 130°51'714.5
2018-Apr-20 03:01N 34°12' E 130°49'814.3
2018-Apr-20 02:27N 34°20' E 130°48'  
2018-Apr-17 13:41N 34°29' E 130°59'514.3
2018-Apr-17 13:20N 34°26' E 130°54'514.2
2018-Apr-17 13:00N 34°23' E 130°50'713.2
2018-Apr-17 12:30N 34°17' E 130°48'714.4
2018-Apr-17 12:00N 34°10' E 130°50'714.4
2018-Apr-17 11:30N 34°03' E 130°52'713.6
2018-Apr-17 11:01N 33°56' E 130°53'5 9.0
2018-Apr-17 10:30N 33°58' E 130°58'5 9.9
2018-Apr-17 10:00N 33°57' E 131°04'713.9
2018-Apr-17 09:30N 33°54' E 131°11'2 3.9
2018-Apr-17 09:01N 33°56' E 131°11'0 0.0
2018-Apr-17 08:30N 33°56' E 131°11'0 0.0
2018-Apr-17 08:00N 33°56' E 131°11'0 0.0
2018-Apr-17 07:30N 33°56' E 131°11'0 0.0
2018-Apr-17 07:01N 33°56' E 131°11'0 0.0
2018-Apr-17 06:30N 33°56' E 131°11'0 0.0
2018-Apr-17 06:01N 33°56' E 131°11'0 0.0
2018-Apr-17 05:30N 33°56' E 131°11'0 0.0
2018-Apr-17 05:00N 33°56' E 131°11'0 0.0
2018-Apr-17 04:31N 33°56' E 131°11'0 0.0
2018-Apr-17 04:00N 33°56' E 131°11'0 0.6
2018-Apr-17 03:31N 33°56' E 131°12'2 4.0
2018-Apr-17 03:01N 33°54' E 131°11'0 0.2
2018-Apr-17 02:30N 33°54' E 131°11'0 0.1
2018-Apr-17 02:00N 33°54' E 131°11'0 0.0
2018-Apr-17 01:30N 33°54' E 131°11'0 0.0
2018-Apr-17 01:00N 33°54' E 131°11'2 4.9
2018-Apr-17 00:30N 33°55' E 131°08'713.5
2018-Apr-17 00:01N 33°58' E 131°01'5 9.6
2018-Apr-16 23:30N 33°56' E 130°56'4 7.2
2018-Apr-16 23:00N 33°56' E 130°52'612.6
2018-Apr-16 22:30N 34°03' E 130°51'714.5
2018-Apr-16 22:00N 34°10' E 130°50'714.5
2018-Apr-16 21:30N 34°17' E 130°48'713.9
2018-Apr-16 21:00N 34°24' E 130°49'  
2018-Apr-14 09:27N 41°17' E 140°16'712.3
2018-Apr-14 08:55N 41°21' E 140°23'511.6
2018-Apr-14 08:30N 41°24' E 140°28'611.3
2018-Apr-14 07:58N 41°27' E 140°35'612.1
2018-Apr-14 07:31N 41°30' E 140°41'611.9
2018-Apr-14 07:00N 41°34' E 140°48'612.6
2018-Apr-14 06:31N 41°37' E 140°54'  
Track history (hours):
 
Tides and Currents Weather Stations Pressure Air Temp Water Temp Dewpoint Dewpoint Depression Visibility Wind Speed Wind Dir Waves Ship Positions

Ai Maru

Last reported at 2018-Apr-24 06:08 UTC. Time now 2018-Apr-25 16:13 UTC.
Position N 35°04' E 140°21'.

Length 105 m; draft 6.4 m.

Type: Tanker. MMSI: 431501797.

Date/timePositionNaut miles runAvg speedWind from/ knotsBaromVisibWave heightAir tempDewpointWater temp
2018-Apr-24 06:08N 35°04' E 140°21'915.2
2018-Apr-24 05:33N 34°59' E 140°12'315.0
2018-Apr-24 05:22N 34°57' E 140°09'614.9
2018-Apr-24 04:59N 34°55' E 140°03'2513.9
2018-Apr-24 03:13N 34°43' E 139°37'1315.7
2018-Apr-24 02:22N 34°38' E 139°22'616.0
2018-Apr-24 01:58N 34°37' E 139°14'915.5
2018-Apr-24 01:22N 34°34' E 139°03'615.7
2018-Apr-24 01:00N 34°33' E 138°57'815.2
2018-Apr-24 00:27N 34°32' E 138°47'814.7
2018-Apr-23 23:55N 34°32' E 138°37'1014.6
2018-Apr-23 23:12N 34°32' E 138°24'614.0
2018-Apr-23 22:47N 34°32' E 138°17'414.0
2018-Apr-23 22:29N 34°32' E 138°12'713.9
2018-Apr-23 22:00N 34°32' E 138°04'5813.7
2018-Apr-23 17:46N 34°37' E 136°54'413.9
2018-Apr-23 17:28N 34°40' E 136°50'1013.9
2018-Apr-23 16:46N 34°49' E 136°45'414.1
2018-Apr-23 16:30N 34°52' E 136°42'611.8
2018-Apr-23 16:00N 34°57' E 136°39'1 1.3
2018-Apr-23 15:28N 34°56' E 136°38'0 0.0
2018-Apr-23 14:58N 34°56' E 136°38'0 0.0
2018-Apr-23 14:28N 34°56' E 136°38'0 0.0
2018-Apr-23 13:58N 34°56' E 136°38'0 0.0
2018-Apr-23 13:28N 34°56' E 136°38'0 0.0
2018-Apr-23 12:58N 34°56' E 136°38'0 0.0
2018-Apr-23 12:28N 34°56' E 136°38'0 0.0
2018-Apr-23 11:58N 34°56' E 136°38'0 0.0
2018-Apr-23 11:25N 34°56' E 136°38'0 0.0
2018-Apr-23 10:55N 34°56' E 136°38'0 0.0
2018-Apr-23 10:25N 34°56' E 136°38'0 0.0
2018-Apr-23 10:00N 34°56' E 136°38'0 0.0
2018-Apr-23 09:30N 34°56' E 136°38'0 0.0
2018-Apr-23 09:00N 34°56' E 136°38'1 1.8
2018-Apr-23 08:30N 34°57' E 136°39'3 6.2
2018-Apr-23 08:00N 34°54' E 136°41'0 0.0
2018-Apr-23 07:27N 34°54' E 136°41'0 0.0
2018-Apr-23 07:00N 34°54' E 136°41'0 0.0
2018-Apr-23 06:30N 34°54' E 136°41'0 0.0
2018-Apr-23 05:57N 34°54' E 136°41'0 0.0
2018-Apr-23 05:27N 34°54' E 136°41'1 2.7
2018-Apr-23 04:59N 34°55' E 136°41'4 7.3
2018-Apr-23 04:30N 34°58' E 136°39'0 0.0
2018-Apr-23 04:00N 34°58' E 136°39'0 0.0
2018-Apr-23 03:30N 34°58' E 136°39'0 0.0
2018-Apr-23 03:00N 34°58' E 136°39'0 0.0
2018-Apr-23 02:30N 34°58' E 136°39'0 0.0
2018-Apr-23 02:00N 34°58' E 136°39'0 0.0
2018-Apr-23 01:30N 34°58' E 136°39'0 0.0
2018-Apr-23 01:00N 34°58' E 136°39'0 0.0
2018-Apr-23 00:30N 34°58' E 136°39'0 0.0
2018-Apr-23 00:00N 34°58' E 136°39'0 0.0
2018-Apr-22 23:30N 34°58' E 136°39'2 3.4
2018-Apr-22 23:00N 34°57' E 136°40'3 6.5
2018-Apr-22 22:30N 34°57' E 136°44'0 0.0
2018-Apr-22 22:00N 34°57' E 136°44'0 0.0
2018-Apr-22 21:30N 34°57' E 136°44'0 0.0
2018-Apr-22 21:00N 34°57' E 136°44'0 0.0
2018-Apr-22 20:30N 34°57' E 136°44'0 0.0
2018-Apr-22 20:00N 34°57' E 136°44'0 0.0
2018-Apr-22 19:30N 34°57' E 136°44'0 0.0
2018-Apr-22 19:00N 34°57' E 136°44'0 0.0
2018-Apr-22 18:30N 34°57' E 136°44'0 0.0
2018-Apr-22 18:00N 34°57' E 136°44'0 0.0
2018-Apr-22 17:30N 34°57' E 136°44'0 0.1
2018-Apr-22 17:00N 34°57' E 136°44'0 0.0
2018-Apr-22 16:30N 34°57' E 136°44'0 0.0
2018-Apr-22 16:00N 34°57' E 136°44'0 0.0
2018-Apr-22 15:30N 34°57' E 136°44'0 0.0
2018-Apr-22 15:00N 34°57' E 136°44'0 0.0
2018-Apr-22 14:30N 34°57' E 136°44'0 0.0
2018-Apr-22 14:00N 34°57' E 136°44'0 0.1
2018-Apr-22 13:30N 34°57' E 136°44'4 8.7
2018-Apr-22 13:01N 34°52' E 136°44'714.0
2018-Apr-22 12:31N 34°46' E 136°48'714.5
2018-Apr-22 12:00N 34°40' E 136°52'714.1
2018-Apr-22 11:30N 34°35' E 136°59'713.4
2018-Apr-22 11:00N 34°30' E 137°04'714.8
2018-Apr-22 10:30N 34°23' E 137°02'2114.1
2018-Apr-22 09:02N 34°05' E 136°48'114.7
2018-Apr-22 09:00N 34°05' E 136°47'714.4
2018-Apr-22 08:29N 34°00' E 136°41'18813.6
2018-Apr-21 18:43N 32°42' E 133°16'5312.8
2018-Apr-21 14:35N 32°58' E 132°16'1312.6
2018-Apr-21 13:31N 33°09' E 132°08'112.6
2018-Apr-21 13:25N 33°10' E 132°07'512.4
2018-Apr-21 13:00N 33°15' E 132°04'612.3
2018-Apr-21 12:31N 33°20' E 131°59'5 9.4
2018-Apr-21 11:59N 33°24' E 132°01'612.4
2018-Apr-21 11:30N 33°28' E 132°06'613.0
2018-Apr-21 11:01N 33°33' E 132°12'713.2
2018-Apr-21 10:30N 33°37' E 132°18'714.0
2018-Apr-21 10:00N 33°42' E 132°24'715.1
2018-Apr-21 09:30N 33°47' E 132°31'815.3
2018-Apr-21 09:00N 33°54' E 132°36'815.7
2018-Apr-21 08:31N 33°59' E 132°43'8 0.9
2018-Apr-20 23:53N 34°03' E 132°51'1 2.5
2018-Apr-20 23:30N 34°03' E 132°50'1 2.2
2018-Apr-20 23:00N 34°04' E 132°51'1 0.1
2018-Apr-20 12:04N 34°04' E 132°49'315.4
2018-Apr-20 11:53N 34°02' E 132°47'615.5
2018-Apr-20 11:30N 33°57' E 132°43'1114.7
2018-Apr-20 10:46N 33°50' E 132°33'414.4
2018-Apr-20 10:30N 33°48' E 132°29'714.4
2018-Apr-20 10:00N 33°45' E 132°21'1214.3
2018-Apr-20 09:12N 33°41' E 132°08'314.0
2018-Apr-20 09:00N 33°41' E 132°05'714.3
2018-Apr-20 08:29N 33°43' E 131°56'714.9
2018-Apr-20 08:00N 33°45' E 131°48'815.5
2018-Apr-20 07:30N 33°46' E 131°39'815.6
2018-Apr-20 07:00N 33°48' E 131°29'815.5
2018-Apr-20 06:30N 33°50' E 131°20'815.5
2018-Apr-20 06:00N 33°52' E 131°11'815.2
2018-Apr-20 05:30N 33°57' E 131°04'611.7
2018-Apr-20 05:00N 33°58' E 130°57'4 8.5
2018-Apr-20 04:30N 33°55' E 130°54'4 7.8
2018-Apr-20 04:00N 33°58' E 130°53'714.1
2018-Apr-20 03:30N 34°05' E 130°51'714.5
2018-Apr-20 03:01N 34°12' E 130°49'814.3
2018-Apr-20 02:27N 34°20' E 130°48'  
2018-Apr-17 13:41N 34°29' E 130°59'514.3
2018-Apr-17 13:20N 34°26' E 130°54'514.2
2018-Apr-17 13:00N 34°23' E 130°50'713.2
2018-Apr-17 12:30N 34°17' E 130°48'714.4
2018-Apr-17 12:00N 34°10' E 130°50'714.4
2018-Apr-17 11:30N 34°03' E 130°52'713.6
2018-Apr-17 11:01N 33°56' E 130°53'5 9.0
2018-Apr-17 10:30N 33°58' E 130°58'5 9.9
2018-Apr-17 10:00N 33°57' E 131°04'713.9
2018-Apr-17 09:30N 33°54' E 131°11'2 3.9
2018-Apr-17 09:01N 33°56' E 131°11'0 0.0
2018-Apr-17 08:30N 33°56' E 131°11'0 0.0
2018-Apr-17 08:00N 33°56' E 131°11'0 0.0
2018-Apr-17 07:30N 33°56' E 131°11'0 0.0
2018-Apr-17 07:01N 33°56' E 131°11'0 0.0
2018-Apr-17 06:30N 33°56' E 131°11'0 0.0
2018-Apr-17 06:01N 33°56' E 131°11'0 0.0
2018-Apr-17 05:30N 33°56' E 131°11'0 0.0
2018-Apr-17 05:00N 33°56' E 131°11'0 0.0
2018-Apr-17 04:31N 33°56' E 131°11'0 0.0
2018-Apr-17 04:00N 33°56' E 131°11'0 0.6
2018-Apr-17 03:31N 33°56' E 131°12'2 4.0
2018-Apr-17 03:01N 33°54' E 131°11'0 0.2
2018-Apr-17 02:30N 33°54' E 131°11'0 0.1
2018-Apr-17 02:00N 33°54' E 131°11'0 0.0
2018-Apr-17 01:30N 33°54' E 131°11'0 0.0
2018-Apr-17 01:00N 33°54' E 131°11'2 4.9
2018-Apr-17 00:30N 33°55' E 131°08'713.5
2018-Apr-17 00:01N 33°58' E 131°01'5 9.6
2018-Apr-16 23:30N 33°56' E 130°56'4 7.2
2018-Apr-16 23:00N 33°56' E 130°52'612.6
2018-Apr-16 22:30N 34°03' E 130°51'714.5
2018-Apr-16 22:00N 34°10' E 130°50'714.5
2018-Apr-16 21:30N 34°17' E 130°48'713.9
2018-Apr-16 21:00N 34°24' E 130°49'  
2018-Apr-14 09:27N 41°17' E 140°16'712.3
2018-Apr-14 08:55N 41°21' E 140°23'511.6
2018-Apr-14 08:30N 41°24' E 140°28'611.3
2018-Apr-14 07:58N 41°27' E 140°35'612.1
2018-Apr-14 07:31N 41°30' E 140°41'611.9
2018-Apr-14 07:00N 41°34' E 140°48'612.6
2018-Apr-14 06:31N 41°37' E 140°54'  

Dump ship's entire track history